createdAt,value
2023-02-11T00:00:40.846Z,89.16
2023-02-11T00:03:08.209Z,89.31
2023-02-11T00:05:36.099Z,88.54
2023-02-11T00:08:03.569Z,88.71
2023-02-11T00:10:30.263Z,88.79
2023-02-11T00:12:56.787Z,87.91
2023-02-11T00:15:23.930Z,88.26
2023-02-11T00:17:50.630Z,87.90
2023-02-11T00:20:17.966Z,88.76
2023-02-11T00:22:45.297Z,87.88
2023-02-11T00:25:12.374Z,88.28
2023-02-11T00:27:41.271Z,88.51
2023-02-11T00:30:08.491Z,87.84
2023-02-11T00:32:36.927Z,88.73
2023-02-11T00:35:03.569Z,88.71
2023-02-11T00:37:30.107Z,89.06
2023-02-11T00:39:56.685Z,88.98
2023-02-11T00:42:23.173Z,89.28
2023-02-11T00:44:50.221Z,87.82
2023-02-11T00:47:17.039Z,88.87
2023-02-11T00:49:43.857Z,89.08
2023-02-11T00:52:10.809Z,88.43
2023-02-11T00:54:37.363Z,89.50
2023-02-11T00:57:03.972Z,88.33
2023-02-11T00:59:30.528Z,88.61
2023-02-11T01:01:57.155Z,89.87
2023-02-11T01:04:24.106Z,90.54
2023-02-11T01:06:50.664Z,89.72
2023-02-11T01:09:17.325Z,90.85
2023-02-11T01:11:44.169Z,90.41
2023-02-11T01:14:10.848Z,89.87
2023-02-11T01:16:38.001Z,90.12
2023-02-11T01:19:04.572Z,89.17
2023-02-11T01:21:31.295Z,89.64
2023-02-11T01:23:57.714Z,89.60
2023-02-11T01:26:24.330Z,90.90
2023-02-11T01:28:50.986Z,90.74
2023-02-11T01:31:17.435Z,91.54
2023-02-11T01:33:44.487Z,91.33
2023-02-11T01:36:11.962Z,91.29
2023-02-11T01:38:40.779Z,92.74
2023-02-11T01:41:10.299Z,92.25
2023-02-11T01:43:39.806Z,91.50
2023-02-11T01:46:32.885Z,91.70
2023-02-11T01:49:10.835Z,92.13
2023-02-11T01:51:41.191Z,91.31
2023-02-11T01:54:28.619Z,91.08
2023-02-11T01:57:17.393Z,91.73
2023-02-11T01:59:48.399Z,91.95
2023-02-11T02:02:19.776Z,91.62
2023-02-11T02:04:53.537Z,91.20
2023-02-11T02:07:28.728Z,91.58
2023-02-11T02:10:01.730Z,91.75
2023-02-11T02:12:28.211Z,92.29
2023-02-11T02:15:31.473Z,92.55
2023-02-11T02:18:00.907Z,93.01
2023-02-11T02:20:36.337Z,92.98
2023-02-11T02:23:21.062Z,92.75
2023-02-11T02:26:04.561Z,91.99
2023-02-11T02:28:48.452Z,92.17
2023-02-11T02:31:36.450Z,92.69
2023-02-11T02:34:09.622Z,92.00
2023-02-11T02:36:56.628Z,92.96
2023-02-11T02:39:31.809Z,93.47
2023-02-11T02:41:58.461Z,92.26
2023-02-11T02:44:25.512Z,92.14
2023-02-11T02:46:52.172Z,93.30
2023-02-11T02:49:18.626Z,92.20
2023-02-11T02:52:07.094Z,93.50
2023-02-11T02:54:33.849Z,92.53
2023-02-11T02:57:32.794Z,92.79
2023-02-11T03:00:29.727Z,91.99
2023-02-11T03:03:38.249Z,91.71
2023-02-11T03:06:14.164Z,92.20
2023-02-11T03:08:47.141Z,92.41
2023-02-11T03:11:16.982Z,92.22
2023-02-11T03:13:46.310Z,92.89
2023-02-11T03:16:38.961Z,93.85
2023-02-11T03:19:12.571Z,92.90
2023-02-11T03:21:42.960Z,92.35
2023-02-11T03:24:16.773Z,92.73
2023-02-11T03:26:49.611Z,93.01
2023-02-11T03:29:51.451Z,93.19
2023-02-11T03:32:32.692Z,93.39
2023-02-11T03:35:10.350Z,93.41
2023-02-11T03:37:53.079Z,93.08
2023-02-11T03:40:26.766Z,94.14
2023-02-11T03:43:00.208Z,93.58
2023-02-11T03:45:28.521Z,94.31
2023-02-11T03:48:00.023Z,94.66
2023-02-11T03:50:31.111Z,94.42
2023-02-11T03:53:01.893Z,94.92
2023-02-11T03:55:30.664Z,94.65
2023-02-11T03:57:57.476Z,94.44
2023-02-11T04:00:32.480Z,94.60
2023-02-11T04:03:01.295Z,94.73
2023-02-11T04:05:28.197Z,94.41
2023-02-11T04:07:54.771Z,94.50
2023-02-11T04:10:21.377Z,94.37
2023-02-11T04:12:47.989Z,94.19
2023-02-11T04:15:14.765Z,93.67
2023-02-11T04:17:42.065Z,94.10
2023-02-11T04:20:09.230Z,94.58
2023-02-11T04:22:36.387Z,94.81
2023-02-11T04:25:04.310Z,94.94
2023-02-11T04:27:31.508Z,94.67
2023-02-11T04:29:57.883Z,94.29
2023-02-11T04:32:24.963Z,94.44
2023-02-11T04:34:51.929Z,94.00
2023-02-11T04:37:18.388Z,94.53
2023-02-11T04:39:45.227Z,94.01
2023-02-11T04:42:12.440Z,94.39
2023-02-11T04:44:39.669Z,94.22
2023-02-11T04:47:06.229Z,94.42
2023-02-11T04:49:32.648Z,95.18
2023-02-11T04:51:59.397Z,95.00
2023-02-11T04:54:25.928Z,95.29
2023-02-11T04:56:52.689Z,95.47
2023-02-11T04:59:19.020Z,95.51
2023-02-11T05:01:45.867Z,96.03
2023-02-11T05:04:12.543Z,95.48
2023-02-11T05:06:39.932Z,95.41
2023-02-11T05:09:06.337Z,95.24
2023-02-11T05:11:32.901Z,95.39
2023-02-11T05:13:59.989Z,95.17
2023-02-11T05:16:27.019Z,94.39
2023-02-11T05:18:55.508Z,94.14
2023-02-11T05:21:22.887Z,94.80
2023-02-11T05:23:50.247Z,93.69
2023-02-11T05:26:17.108Z,94.06
2023-02-11T05:28:44.841Z,94.58
2023-02-11T05:31:12.366Z,94.62
2023-02-11T05:33:39.050Z,93.73
2023-02-11T05:36:09.276Z,93.27
2023-02-11T05:38:36.345Z,93.90
2023-02-11T05:41:04.724Z,93.95
2023-02-11T05:43:31.595Z,93.49
2023-02-11T05:45:58.508Z,93.77
2023-02-11T05:48:24.992Z,93.94
2023-02-11T05:50:51.453Z,93.22
2023-02-11T05:53:18.019Z,93.82
2023-02-11T05:55:44.962Z,94.00
2023-02-11T05:58:11.355Z,93.48
2023-02-11T06:00:38.520Z,92.36
2023-02-11T06:03:05.666Z,93.44
2023-02-11T06:05:32.400Z,92.66
2023-02-11T06:07:59.434Z,93.03
2023-02-11T06:10:26.690Z,91.26
2023-02-11T06:12:53.097Z,91.52
2023-02-11T06:15:20.050Z,91.89
2023-02-11T06:17:46.749Z,91.79
2023-02-11T06:20:13.393Z,92.25
2023-02-11T06:22:40.593Z,91.50
2023-02-11T06:25:07.184Z,92.34
2023-02-11T06:27:33.784Z,92.33
2023-02-11T06:30:01.451Z,91.27
2023-02-11T06:32:43.981Z,92.61
2023-02-11T06:35:12.713Z,90.89
2023-02-11T06:37:40.823Z,90.55
2023-02-11T06:40:07.566Z,89.22
2023-02-11T06:42:35.980Z,90.40
2023-02-11T06:45:05.867Z,91.06
2023-02-11T06:47:33.135Z,91.28
2023-02-11T06:49:59.546Z,91.61
2023-02-11T06:52:26.616Z,92.25
2023-02-11T06:54:53.261Z,92.30
2023-02-11T06:57:19.758Z,91.93
2023-02-11T06:59:46.312Z,92.17
2023-02-11T07:02:12.844Z,92.06
2023-02-11T07:04:39.978Z,92.66
2023-02-11T07:07:06.528Z,91.92
2023-02-11T07:09:33.551Z,92.88
2023-02-11T07:12:00.154Z,93.30
2023-02-11T07:14:27.189Z,92.98
2023-02-11T07:16:53.994Z,91.00
2023-02-11T07:19:20.390Z,90.50
2023-02-11T07:21:48.497Z,91.06
2023-02-11T07:24:15.241Z,90.77
2023-02-11T07:26:41.756Z,91.08
2023-02-11T07:29:08.193Z,90.72
2023-02-11T07:31:34.699Z,91.12
2023-02-11T07:34:02.114Z,88.86
2023-02-11T07:36:31.691Z,90.99
2023-02-11T07:38:58.938Z,90.00
2023-02-11T07:41:26.082Z,90.62
2023-02-11T07:43:53.036Z,90.80
2023-02-11T07:46:22.152Z,90.38
2023-02-11T07:48:48.863Z,90.18
2023-02-11T07:51:20.813Z,89.43
2023-02-11T07:53:49.344Z,90.04
2023-02-11T07:56:17.262Z,90.75
2023-02-11T07:58:44.564Z,89.37
2023-02-11T08:01:15.441Z,89.71
2023-02-11T08:03:43.177Z,89.33
2023-02-11T08:06:16.504Z,89.37
2023-02-11T08:08:44.047Z,88.20
2023-02-11T08:11:16.917Z,89.34
2023-02-11T08:13:44.251Z,89.42
2023-02-11T08:16:24.195Z,89.50
2023-02-11T08:18:51.682Z,90.00
2023-02-11T08:21:19.326Z,89.78
2023-02-11T08:23:46.886Z,89.40
2023-02-11T08:26:16.579Z,88.45
2023-02-11T08:28:46.369Z,88.20
2023-02-11T08:31:25.230Z,88.32
2023-02-11T08:33:53.179Z,88.56
2023-02-11T08:36:25.274Z,88.71
2023-02-11T08:38:57.161Z,88.16
2023-02-11T08:41:29.760Z,89.16
2023-02-11T08:43:56.368Z,88.49
2023-02-11T08:46:23.053Z,88.48
2023-02-11T08:48:50.182Z,88.17
2023-02-11T08:51:28.539Z,88.58
2023-02-11T08:53:55.835Z,88.51
2023-02-11T08:56:24.815Z,88.04
2023-02-11T08:58:52.754Z,88.02
2023-02-11T09:01:24.989Z,87.31
2023-02-11T09:03:52.571Z,87.09
2023-02-11T09:06:19.709Z,86.52
2023-02-11T09:08:49.362Z,87.06
2023-02-11T09:11:18.840Z,87.18
2023-02-11T09:13:46.049Z,86.98
2023-02-11T09:16:26.231Z,86.06
2023-02-11T09:18:53.495Z,87.44
2023-02-11T09:21:20.269Z,87.52
2023-02-11T09:23:47.888Z,87.36
2023-02-11T09:26:18.587Z,86.66
2023-02-11T09:28:45.790Z,86.94
2023-02-11T09:31:16.404Z,87.01
2023-02-11T09:33:47.891Z,87.14
2023-02-11T09:36:32.210Z,87.17
2023-02-11T09:39:00.826Z,86.83
2023-02-11T09:41:41.352Z,86.65
2023-02-11T09:44:17.998Z,86.63
2023-02-11T09:46:53.091Z,86.77
2023-02-11T09:49:26.319Z,87.25
2023-02-11T09:52:54.130Z,86.33
2023-02-11T09:55:26.786Z,85.72
2023-02-11T09:57:56.017Z,85.51
2023-02-11T10:00:28.489Z,85.76
2023-02-11T10:03:03.815Z,85.18
2023-02-11T10:05:43.059Z,84.96
2023-02-11T10:08:25.757Z,85.71
2023-02-11T10:11:02.929Z,83.43
2023-02-11T10:13:42.690Z,84.33
2023-02-11T10:16:41.888Z,85.23
2023-02-11T10:19:28.036Z,85.34
2023-02-11T10:22:13.267Z,85.23
2023-02-11T10:24:55.344Z,84.45
2023-02-11T10:27:30.524Z,84.43
2023-02-11T10:30:16.434Z,84.75
2023-02-11T10:32:48.522Z,83.97
2023-02-11T10:35:21.554Z,85.00
2023-02-11T10:37:49.054Z,84.78
2023-02-11T10:40:22.225Z,83.98
2023-02-11T10:42:55.105Z,84.65
2023-02-11T10:45:31.958Z,84.49
2023-02-11T10:48:00.650Z,83.68
2023-02-11T10:50:30.214Z,83.57
2023-02-11T10:53:15.427Z,84.42
2023-02-11T10:55:51.085Z,83.88
2023-02-11T10:58:25.513Z,84.25
2023-02-11T11:00:55.066Z,84.16
2023-02-11T11:03:25.261Z,82.78
2023-02-11T11:05:59.731Z,83.26
2023-02-11T11:08:43.509Z,82.41
2023-02-11T11:11:13.183Z,83.17
2023-02-11T11:13:58.053Z,82.21
2023-02-11T11:16:35.512Z,81.87
2023-02-11T11:19:07.776Z,82.70
2023-02-11T11:21:43.340Z,82.45
2023-02-11T11:24:31.168Z,81.68
2023-02-11T11:27:03.634Z,82.17
2023-02-11T11:29:35.429Z,82.15
2023-02-11T11:32:05.775Z,82.67
2023-02-11T11:34:40.443Z,81.24
2023-02-11T11:37:20.238Z,80.74
2023-02-11T11:39:57.679Z,81.77
2023-02-11T11:42:28.714Z,81.99
2023-02-11T11:45:23.096Z,82.46
2023-02-11T11:47:59.662Z,81.96
2023-02-11T11:50:29.144Z,81.41
2023-02-11T11:53:04.877Z,81.51
2023-02-11T11:55:37.868Z,82.68
2023-02-11T11:58:10.501Z,82.22
2023-02-11T12:00:54.237Z,81.10
2023-02-11T12:03:56.392Z,82.08
2023-02-11T12:06:48.115Z,81.38
2023-02-11T12:09:25.801Z,81.91
2023-02-11T12:12:11.419Z,81.49
2023-02-11T12:14:53.729Z,81.36
2023-02-11T12:17:35.259Z,81.06
2023-02-11T12:20:35.353Z,80.43
2023-02-11T12:23:15.124Z,80.34
2023-02-11T12:25:59.027Z,81.25
2023-02-11T12:28:40.248Z,80.50
2023-02-11T12:31:19.849Z,80.85
2023-02-11T12:34:18.704Z,80.71
2023-02-11T12:37:06.243Z,79.70
2023-02-11T12:39:40.407Z,79.25
2023-02-11T12:42:55.679Z,79.49
2023-02-11T12:45:41.468Z,79.85
2023-02-11T12:48:29.042Z,79.50
2023-02-11T12:51:06.885Z,79.18
2023-02-11T12:53:44.147Z,79.34
2023-02-11T12:56:29.170Z,79.81
2023-02-11T12:58:58.866Z,79.75
2023-02-11T13:01:36.539Z,79.72
2023-02-11T13:04:11.863Z,80.20
2023-02-11T13:06:48.945Z,79.46
2023-02-11T13:09:22.497Z,79.70
2023-02-11T13:11:57.699Z,80.18
2023-02-11T13:14:38.953Z,80.85
2023-02-11T13:17:27.332Z,80.61
2023-02-11T13:20:01.364Z,80.58
2023-02-11T13:22:57.575Z,79.99
2023-02-11T13:25:43.371Z,79.97
2023-02-11T13:28:28.814Z,80.81
2023-02-11T13:31:03.023Z,80.82
2023-02-11T13:33:39.335Z,80.87
2023-02-11T13:36:05.972Z,81.74
2023-02-11T13:38:33.029Z,81.25
2023-02-11T13:41:07.068Z,81.13
2023-02-11T13:43:36.194Z,81.84
2023-02-11T13:46:05.785Z,81.78
2023-02-11T13:48:53.833Z,81.70
2023-02-11T13:51:38.935Z,82.53
2023-02-11T13:54:07.526Z,82.74
2023-02-11T13:56:43.961Z,82.74
2023-02-11T13:59:26.267Z,83.15
2023-02-11T14:02:11.938Z,82.71
2023-02-11T14:05:23.530Z,83.23
2023-02-11T14:08:30.136Z,83.70
2023-02-11T14:10:58.969Z,83.87
2023-02-11T14:13:30.711Z,83.80
2023-02-11T14:16:20.382Z,83.25
2023-02-11T14:18:55.683Z,83.76
2023-02-11T14:21:32.211Z,83.66
2023-02-11T14:24:01.870Z,83.76
2023-02-11T14:26:42.538Z,83.58
2023-02-11T14:29:27.419Z,83.70
2023-02-11T14:32:25.984Z,84.85
2023-02-11T14:35:04.293Z,85.36
2023-02-11T14:37:50.762Z,85.45
2023-02-11T14:40:32.195Z,85.42
2023-02-11T14:43:11.562Z,86.47
2023-02-11T14:45:39.051Z,86.68
2023-02-11T14:48:14.784Z,86.60
2023-02-11T14:50:53.937Z,86.72
2023-02-11T14:53:23.936Z,86.59
2023-02-11T14:55:52.802Z,85.37
2023-02-11T14:58:30.621Z,85.89
2023-02-11T15:01:00.952Z,86.31
2023-02-11T15:03:33.437Z,86.34
2023-02-11T15:06:05.556Z,87.14
2023-02-11T15:08:35.969Z,86.41
2023-02-11T15:11:07.910Z,86.58
2023-02-11T15:13:35.041Z,86.48
2023-02-11T15:16:06.849Z,87.12
2023-02-11T15:18:40.594Z,86.87
2023-02-11T15:21:08.897Z,86.77
2023-02-11T15:23:37.136Z,85.57
2023-02-11T15:26:13.067Z,86.11
2023-02-11T15:28:48.851Z,85.57
2023-02-11T15:31:17.361Z,85.25
2023-02-11T15:33:44.437Z,85.25
2023-02-11T15:36:11.667Z,84.86
2023-02-11T15:38:38.673Z,85.68
2023-02-11T15:41:07.356Z,86.47
2023-02-11T15:43:48.011Z,85.40
2023-02-11T15:46:18.681Z,85.57
2023-02-11T15:48:51.658Z,84.73
2023-02-11T15:51:28.616Z,84.88
2023-02-11T15:53:59.238Z,84.49
2023-02-11T15:56:30.592Z,85.02
2023-02-11T15:59:00.678Z,84.77
2023-02-11T16:01:36.745Z,85.53
2023-02-11T16:04:05.264Z,86.38
2023-02-11T16:06:39.994Z,87.41
2023-02-11T16:09:08.524Z,87.27
2023-02-11T16:11:38.385Z,86.92
2023-02-11T16:14:22.809Z,87.30
2023-02-11T16:16:52.812Z,87.27
2023-02-11T16:19:22.971Z,87.72
2023-02-11T16:21:53.374Z,87.28
2023-02-11T16:24:34.093Z,87.44
2023-02-11T16:27:03.917Z,87.45
2023-02-11T16:29:33.343Z,88.35
2023-02-11T16:32:19.417Z,87.63
2023-02-11T16:34:47.460Z,88.45
2023-02-11T16:37:14.457Z,89.08
2023-02-11T16:39:41.573Z,88.99
2023-02-11T16:42:10.904Z,88.74
2023-02-11T16:44:37.780Z,89.40
2023-02-11T16:47:08.199Z,88.94
2023-02-11T16:49:39.997Z,88.51
2023-02-11T16:52:09.179Z,88.00
2023-02-11T16:54:35.648Z,88.39
2023-02-11T16:57:02.529Z,88.52
2023-02-11T16:59:29.668Z,88.52
2023-02-11T17:01:57.369Z,89.05
2023-02-11T17:04:29.885Z,88.57
2023-02-11T17:06:58.705Z,88.61
2023-02-11T17:09:30.337Z,88.85
2023-02-11T17:11:57.914Z,89.48
2023-02-11T17:14:28.608Z,89.11
2023-02-11T17:16:57.030Z,88.87
2023-02-11T17:19:23.854Z,89.37
2023-02-11T17:21:52.342Z,89.40
2023-02-11T17:24:20.560Z,89.13
2023-02-11T17:26:48.092Z,89.71
2023-02-11T17:29:18.303Z,89.61
2023-02-11T17:31:45.324Z,89.41
2023-02-11T17:34:14.631Z,90.00
2023-02-11T17:36:41.382Z,90.07
2023-02-11T17:39:08.626Z,89.83
2023-02-11T17:41:36.236Z,89.86
2023-02-11T17:44:03.529Z,90.06
2023-02-11T17:46:30.227Z,89.50
2023-02-11T17:48:58.748Z,90.07
2023-02-11T17:51:27.991Z,90.11
2023-02-11T17:54:00.020Z,89.68
2023-02-11T17:56:26.807Z,90.47
2023-02-11T17:58:53.818Z,90.05
2023-02-11T18:01:20.557Z,89.91
2023-02-11T18:03:47.636Z,90.01
2023-02-11T18:06:14.540Z,90.12
2023-02-11T18:08:43.060Z,90.40
2023-02-11T18:11:10.831Z,89.74
2023-02-11T18:13:37.475Z,90.96
2023-02-11T18:16:06.128Z,90.53
2023-02-11T18:18:33.828Z,90.10
2023-02-11T18:21:03.878Z,89.84
2023-02-11T18:23:30.580Z,90.67
2023-02-11T18:25:56.991Z,90.55
2023-02-11T18:28:25.884Z,89.47
2023-02-11T18:30:59.463Z,90.28
2023-02-11T18:33:27.360Z,90.50
2023-02-11T18:35:53.996Z,89.51
2023-02-11T18:38:22.352Z,89.97
2023-02-11T18:40:50.415Z,90.65
2023-02-11T18:43:18.796Z,90.52
2023-02-11T18:45:47.123Z,90.64
2023-02-11T18:48:14.132Z,90.01
2023-02-11T18:50:44.461Z,89.73
2023-02-11T18:53:13.331Z,91.13
2023-02-11T18:55:42.676Z,90.55
2023-02-11T18:58:10.867Z,91.30
2023-02-11T19:00:41.182Z,91.32
2023-02-11T19:03:07.904Z,91.62
2023-02-11T19:05:48.327Z,91.63
2023-02-11T19:08:15.514Z,91.51
2023-02-11T19:10:45.102Z,91.39
2023-02-11T19:13:11.970Z,91.15
2023-02-11T19:15:43.363Z,91.07
2023-02-11T19:18:10.775Z,90.71
2023-02-11T19:20:42.486Z,90.18
2023-02-11T19:23:09.268Z,90.63
2023-02-11T19:25:36.069Z,90.99
2023-02-11T19:28:03.806Z,91.20
2023-02-11T19:30:30.544Z,91.99
2023-02-11T19:32:57.927Z,92.02
2023-02-11T19:35:24.848Z,90.97
2023-02-11T19:37:51.406Z,91.87
2023-02-11T19:40:19.174Z,92.17
2023-02-11T19:42:45.702Z,92.41
2023-02-11T19:45:14.404Z,92.09
2023-02-11T19:47:41.233Z,91.75
2023-02-11T19:50:08.541Z,91.93
2023-02-11T19:52:46.165Z,91.92
2023-02-11T19:55:13.011Z,91.36
2023-02-11T19:57:40.028Z,91.65
2023-02-11T20:00:07.443Z,91.85
2023-02-11T20:02:37.797Z,90.90
2023-02-11T20:05:04.960Z,90.76
2023-02-11T20:07:31.381Z,91.52
2023-02-11T20:09:57.984Z,91.20
2023-02-11T20:12:24.370Z,91.67
2023-02-11T20:14:51.071Z,91.79
2023-02-11T20:17:17.529Z,91.47
2023-02-11T20:19:43.995Z,91.90
2023-02-11T20:22:10.358Z,91.59
2023-02-11T20:24:36.822Z,90.96
2023-02-11T20:27:03.326Z,90.93
2023-02-11T20:29:31.696Z,91.37
2023-02-11T20:31:58.439Z,91.51
2023-02-11T20:34:25.280Z,92.15
2023-02-11T20:36:52.385Z,93.00
2023-02-11T20:39:22.130Z,92.35
2023-02-11T20:41:49.525Z,92.84
2023-02-11T20:44:16.411Z,93.59
2023-02-11T20:46:48.224Z,93.06
2023-02-11T20:49:18.696Z,93.04
2023-02-11T20:51:46.106Z,92.44
2023-02-11T20:54:15.978Z,92.94
2023-02-11T20:56:45.516Z,93.26
2023-02-11T20:59:14.056Z,93.23
2023-02-11T21:01:44.167Z,93.19
2023-02-11T21:04:14.383Z,93.19
2023-02-11T21:06:44.689Z,93.32
2023-02-11T21:09:14.011Z,92.96
2023-02-11T21:11:41.244Z,92.79
2023-02-11T21:14:08.188Z,92.87
2023-02-11T21:16:34.904Z,93.06
2023-02-11T21:19:02.889Z,93.17
2023-02-11T21:21:30.045Z,93.03
2023-02-11T21:23:58.364Z,92.98
2023-02-11T21:26:25.390Z,93.43
2023-02-11T21:28:52.107Z,94.03
2023-02-11T21:31:23.251Z,93.30
2023-02-11T21:33:51.147Z,93.21
2023-02-11T21:36:17.862Z,93.29
2023-02-11T21:38:44.330Z,93.53
2023-02-11T21:41:10.751Z,93.35
2023-02-11T21:43:37.566Z,93.04
2023-02-11T21:46:14.890Z,92.77
2023-02-11T21:48:41.955Z,92.73
2023-02-11T21:51:11.150Z,92.82
2023-02-11T21:53:37.909Z,93.30
2023-02-11T21:56:10.182Z,93.52
2023-02-11T21:58:37.854Z,94.21
2023-02-11T22:01:18.228Z,93.04
2023-02-11T22:03:45.509Z,94.39
2023-02-11T22:06:15.184Z,94.38
2023-02-11T22:08:42.883Z,94.26
2023-02-11T22:11:12.546Z,95.10
2023-02-11T22:13:39.969Z,94.61
2023-02-11T22:16:09.525Z,94.47
2023-02-11T22:18:37.247Z,94.92
2023-02-11T22:21:08.014Z,95.22
2023-02-11T22:23:36.016Z,96.17
2023-02-11T22:26:14.924Z,95.50
2023-02-11T22:28:41.454Z,94.89
2023-02-11T22:31:13.411Z,95.50
2023-02-11T22:33:40.420Z,95.71
2023-02-11T22:36:12.315Z,95.96
2023-02-11T22:38:38.737Z,96.50
2023-02-11T22:41:07.842Z,96.32
2023-02-11T22:43:34.874Z,96.11
2023-02-11T22:46:05.822Z,96.15
2023-02-11T22:48:34.157Z,95.04
2023-02-11T22:51:08.565Z,94.57
2023-02-11T22:53:35.501Z,95.00
2023-02-11T22:56:07.347Z,94.89
2023-02-11T22:58:35.472Z,94.67
2023-02-11T23:01:02.858Z,94.67
2023-02-11T23:03:31.319Z,94.53
2023-02-11T23:06:00.817Z,94.12
2023-02-11T23:08:29.876Z,94.53
2023-02-11T23:11:04.262Z,93.64
2023-02-11T23:13:34.730Z,93.11
2023-02-11T23:16:07.318Z,93.12
2023-02-11T23:18:38.581Z,92.95
2023-02-11T23:21:15.683Z,92.56
2023-02-11T23:23:43.208Z,93.05
2023-02-11T23:26:12.607Z,93.26
2023-02-11T23:28:39.675Z,93.78
2023-02-11T23:31:18.105Z,94.70
2023-02-11T23:33:46.687Z,94.70
2023-02-11T23:36:15.116Z,94.75
2023-02-11T23:38:42.302Z,94.78
2023-02-11T23:41:10.088Z,94.15
2023-02-11T23:43:37.480Z,93.77
2023-02-11T23:46:05.006Z,93.02
2023-02-11T23:48:33.831Z,93.40
2023-02-11T23:51:00.570Z,94.15
2023-02-11T23:53:28.081Z,94.25
2023-02-11T23:55:55.037Z,94.65
2023-02-11T23:58:21.977Z,94.64
